createdAt,value
2022-09-05T00:04:37.843Z,99.90
2022-09-05T00:10:05.775Z,99.90
2022-09-05T00:15:24.382Z,99.90
2022-09-05T00:24:19.987Z,99.90
2022-09-05T00:26:50.190Z,99.90
2022-09-05T00:31:57.399Z,99.90
2022-09-05T00:37:00.176Z,99.90
2022-09-05T00:42:14.773Z,99.90
2022-09-05T00:47:53.932Z,99.90
2022-09-05T00:53:22.167Z,99.90
2022-09-05T00:58:52.626Z,99.90
2022-09-05T01:04:32.631Z,99.90
2022-09-05T01:09:54.096Z,99.90
2022-09-05T01:15:23.423Z,99.90
2022-09-05T01:21:03.073Z,99.90
2022-09-05T01:26:30.338Z,99.90
2022-09-05T01:32:10.326Z,99.90
2022-09-05T01:37:34.392Z,99.90
2022-09-05T01:42:48.742Z,99.90
2022-09-05T01:48:17.436Z,99.90
2022-09-05T01:53:58.440Z,99.90
2022-09-05T01:59:16.896Z,99.90
2022-09-05T02:04:45.094Z,99.90
2022-09-05T02:10:19.199Z,99.90
2022-09-05T02:15:30.050Z,99.90
2022-09-05T02:20:41.090Z,99.90
2022-09-05T02:26:02.426Z,99.90
2022-09-05T02:31:20.962Z,99.90
2022-09-05T02:36:26.395Z,99.90
2022-09-05T02:45:06.151Z,99.90
2022-09-05T02:47:22.610Z,99.90
2022-09-05T02:57:28.390Z,99.90
2022-09-05T02:58:10.637Z,99.90
2022-09-05T03:03:21.399Z,99.90
2022-09-05T03:08:44.259Z,99.90
2022-09-05T03:14:24.215Z,99.90
2022-09-05T03:19:46.143Z,99.90
2022-09-05T03:25:07.560Z,99.90
2022-09-05T03:30:17.590Z,99.90
2022-09-05T03:35:50.888Z,99.90
2022-09-05T03:41:36.771Z,99.90
2022-09-05T03:47:27.055Z,99.90
2022-09-05T03:57:13.047Z,99.90
2022-09-05T03:58:57.166Z,99.90
2022-09-05T04:08:10.294Z,99.90
2022-09-05T04:10:03.834Z,99.90
2022-09-05T04:15:35.544Z,99.90
2022-09-05T04:21:01.912Z,99.90
2022-09-05T04:26:26.036Z,99.90
2022-09-05T04:31:44.489Z,99.90
2022-09-05T04:37:00.852Z,99.90
2022-09-05T04:42:06.413Z,99.90
2022-09-05T04:47:38.129Z,99.90
2022-09-05T04:52:49.144Z,99.90
2022-09-05T04:57:51.568Z,99.90
2022-09-05T05:06:19.740Z,99.90
2022-09-05T05:08:38.759Z,99.90
2022-09-05T05:18:00.729Z,99.90
2022-09-05T05:19:39.455Z,99.90
2022-09-05T05:24:46.351Z,99.90
2022-09-05T05:30:09.382Z,99.90
2022-09-05T05:35:20.498Z,99.90
2022-09-05T05:40:30.426Z,99.90
2022-09-05T05:45:34.438Z,99.90
2022-09-05T05:51:15.130Z,99.90
2022-09-05T05:56:20.548Z,99.90
2022-09-05T06:01:37.913Z,99.90
2022-09-05T06:06:57.007Z,99.90
2022-09-05T06:14:56.699Z,99.90
2022-09-05T06:18:07.329Z,99.90
2022-09-05T06:23:36.651Z,99.50
2022-09-05T06:29:16.720Z,98.80
2022-09-05T06:34:35.804Z,97.80
2022-09-05T06:40:17.346Z,96.80
2022-09-05T06:45:58.527Z,96.00
2022-09-05T06:51:27.060Z,95.50
2022-09-05T06:57:00.705Z,95.30
2022-09-05T07:02:58.440Z,94.30
2022-09-05T07:08:23.092Z,93.90
2022-09-05T07:13:44.677Z,94.60
2022-09-05T07:19:17.924Z,93.70
2022-09-05T07:24:54.844Z,93.40
2022-09-05T07:30:00.635Z,92.80
2022-09-05T07:35:06.491Z,91.50
2022-09-05T07:40:25.410Z,91.70
2022-09-05T07:45:30.071Z,92.20
2022-09-05T07:53:59.221Z,91.30
2022-09-05T07:57:08.247Z,91.60
2022-09-05T08:01:32.929Z,90.50
2022-09-05T08:07:47.771Z,91.50
2022-09-05T08:12:46.641Z,90.40
2022-09-05T08:18:24.012Z,90.40
2022-09-05T08:23:35.490Z,88.90
2022-09-05T08:28:43.988Z,90.10
2022-09-05T08:33:49.654Z,89.20
2022-09-05T08:38:53.287Z,89.20
2022-09-05T08:46:41.199Z,89.00
2022-09-05T08:49:48.030Z,88.70
2022-09-05T08:55:21.839Z,88.90
2022-09-05T09:00:27.630Z,89.40
2022-09-05T09:06:12.888Z,88.50
2022-09-05T09:11:19.135Z,87.60
2022-09-05T09:16:34.483Z,86.80
2022-09-05T09:21:46.430Z,86.10
2022-09-05T09:26:56.817Z,84.40
2022-09-05T09:32:11.455Z,84.10
2022-09-05T09:37:50.774Z,83.80
2022-09-05T09:43:07.270Z,81.70
2022-09-05T09:48:33.341Z,81.20
2022-09-05T09:53:50.964Z,80.70
2022-09-05T09:58:53.401Z,79.10
2022-09-05T10:10:35.650Z,79.80
2022-09-05T10:10:59.632Z,80.40
2022-09-05T10:16:11.699Z,79.00
2022-09-05T10:21:42.629Z,76.30
2022-09-05T10:27:13.144Z,78.20
2022-09-05T10:35:17.785Z,78.20
2022-09-05T10:38:10.303Z,76.90
2022-09-05T10:43:28.269Z,75.60
2022-09-05T10:48:44.647Z,75.70
2022-09-05T10:54:01.332Z,75.60
2022-09-05T11:02:15.658Z,73.90
2022-09-05T11:05:23.774Z,72.40
2022-09-05T11:10:36.815Z,73.10
2022-09-05T11:15:51.218Z,72.10
2022-09-05T11:21:20.125Z,71.00
2022-09-05T11:26:44.068Z,69.70
2022-09-05T11:33:53.505Z,71.80
2022-09-05T11:40:05.888Z,70.50
2022-09-05T11:43:20.038Z,69.00
2022-09-05T11:48:58.377Z,69.10
2022-09-05T11:54:49.219Z,68.60
2022-09-05T12:00:32.975Z,69.30
2022-09-05T12:05:59.019Z,68.60
2022-09-05T12:11:22.073Z,68.40
2022-09-05T12:17:00.701Z,67.20
2022-09-05T12:22:26.520Z,68.00
2022-09-05T12:27:42.550Z,67.40
2022-09-05T12:36:02.539Z,66.20
2022-09-05T12:40:57.720Z,65.70
2022-09-05T12:44:42.166Z,66.70
2022-09-05T12:50:14.418Z,65.10
2022-09-05T12:55:22.335Z,66.60
2022-09-05T13:03:13.347Z,65.50
2022-09-05T13:05:58.368Z,65.10
2022-09-05T13:14:47.604Z,64.70
2022-09-05T13:16:28.881Z,63.80
2022-09-05T13:21:31.698Z,63.00
2022-09-05T13:26:43.378Z,63.40
2022-09-05T13:37:55.781Z,63.00
2022-09-05T13:38:00.413Z,63.40
2022-09-05T13:43:22.423Z,61.40
2022-09-05T13:54:34.080Z,61.50
2022-09-05T13:59:42.160Z,60.80
2022-09-05T14:10:43.481Z,61.60
2022-09-05T14:15:52.686Z,63.10
2022-09-05T14:21:18.051Z,63.10
2022-09-05T14:26:28.998Z,63.30
2022-09-05T14:37:37.220Z,64.20
2022-09-05T14:37:48.806Z,64.80
2022-09-05T14:43:15.041Z,63.40
2022-09-05T14:48:29.011Z,64.50
2022-09-05T15:02:44.407Z,64.10
2022-09-05T15:05:11.385Z,63.50
2022-09-05T15:12:15.236Z,64.10
2022-09-05T15:16:01.976Z,63.80
2022-09-05T15:21:36.599Z,63.30
2022-09-05T15:26:57.699Z,63.50
2022-09-05T15:32:21.561Z,63.70
2022-09-05T15:37:40.984Z,64.80
2022-09-05T15:42:50.232Z,63.80
2022-09-05T15:48:18.267Z,63.70
2022-09-05T15:53:37.651Z,63.70
2022-09-05T15:58:54.004Z,64.90
2022-09-05T16:07:59.851Z,64.90
2022-09-05T16:10:33.769Z,64.80
2022-09-05T16:17:16.932Z,65.70
2022-09-05T16:23:20.435Z,66.70
2022-09-05T16:26:25.872Z,67.10
2022-09-05T16:31:48.451Z,67.30
2022-09-05T16:37:08.779Z,67.70
2022-09-05T16:42:23.996Z,68.40
2022-09-05T16:48:14.755Z,69.90
2022-09-05T16:53:30.692Z,69.30
2022-09-05T16:58:41.259Z,70.00
2022-09-05T17:03:56.321Z,71.00
2022-09-05T17:09:19.893Z,71.80
2022-09-05T17:14:24.492Z,72.40
2022-09-05T17:19:33.750Z,73.00
2022-09-05T17:29:19.042Z,73.30
2022-09-05T17:35:48.410Z,74.70
2022-09-05T17:41:26.604Z,75.50
2022-09-05T17:46:31.983Z,76.20
2022-09-05T17:51:51.219Z,77.00
2022-09-05T17:56:54.352Z,77.80
2022-09-05T18:02:02.909Z,78.80
2022-09-05T18:07:25.641Z,79.20
2022-09-05T18:18:43.663Z,80.60
2022-09-05T18:23:43.709Z,81.20
2022-09-05T18:29:14.454Z,81.90
2022-09-05T18:34:19.988Z,82.70
2022-09-05T18:39:23.516Z,82.90
2022-09-05T18:44:58.910Z,82.90
2022-09-05T18:50:25.266Z,83.40
2022-09-05T18:56:10.356Z,83.70
2022-09-05T19:00:50.236Z,84.10
2022-09-05T19:05:55.416Z,84.10
2022-09-05T19:11:27.402Z,84.40
2022-09-05T19:16:42.184Z,84.90
2022-09-05T19:21:56.187Z,85.50
2022-09-05T19:28:07.324Z,86.20
2022-09-05T19:37:05.920Z,86.60
2022-09-05T19:38:02.882Z,86.90
2022-09-05T19:47:29.028Z,87.60
2022-09-05T19:48:34.433Z,88.20
2022-09-05T19:54:04.469Z,88.30
2022-09-05T19:59:25.196Z,89.00
2022-09-05T20:04:31.978Z,89.40
2022-09-05T20:09:43.476Z,90.00
2022-09-05T20:14:46.202Z,90.30
2022-09-05T20:19:49.716Z,90.50
2022-09-05T20:24:52.600Z,90.60
2022-09-05T20:30:02.536Z,90.80
2022-09-05T20:37:18.465Z,91.00
2022-09-05T20:43:19.151Z,91.40
2022-09-05T20:47:41.986Z,91.20
2022-09-05T20:54:15.601Z,91.40
2022-09-05T20:56:48.243Z,91.80
2022-09-05T21:02:04.857Z,92.10
2022-09-05T21:07:25.880Z,92.60
2022-09-05T21:12:45.520Z,92.90
2022-09-05T21:17:49.604Z,93.40
2022-09-05T21:22:52.232Z,93.90
2022-09-05T21:27:56.664Z,94.30
2022-09-05T21:33:14.547Z,94.70
2022-09-05T21:38:32.527Z,94.90
2022-09-05T21:47:47.651Z,95.40
2022-09-05T21:49:07.713Z,95.60
2022-09-05T21:59:14.556Z,95.90
2022-09-05T21:59:45.420Z,96.20
2022-09-05T22:04:49.743Z,96.40
2022-09-05T22:09:52.162Z,96.70
2022-09-05T22:14:54.538Z,97.40
2022-09-05T22:19:57.026Z,97.50
2022-09-05T22:25:07.805Z,97.90
2022-09-05T22:30:12.774Z,98.40
2022-09-05T22:35:27.154Z,98.70
2022-09-05T22:40:31.414Z,99.10
2022-09-05T22:45:35.837Z,99.50
2022-09-05T22:50:39.353Z,99.90
2022-09-05T22:55:43.621Z,99.90
2022-09-05T23:00:46.248Z,99.90
2022-09-05T23:05:48.770Z,99.90
2022-09-05T23:10:51.214Z,99.90
2022-09-05T23:15:57.788Z,99.90
2022-09-05T23:21:05.339Z,99.90
2022-09-05T23:26:10.594Z,99.90
2022-09-05T23:31:13.343Z,99.90
2022-09-05T23:36:15.876Z,99.90
2022-09-05T23:41:18.272Z,99.90
2022-09-05T23:46:20.899Z,99.90
2022-09-05T23:51:23.376Z,99.90
2022-09-05T23:56:25.859Z,99.90
